Time;durP1;ratioP1;P1;durP2;ratioP2;P2;SDS_P1;SDS_P2;PMS_P1;PMS_P2;Temp;Humidity;BMP_temperature;BMP_pressure;BME280_temperature;BME280_humidity;BME280_pressure;Samples;Min_cycle;Max_cycle;Signal;HPM_P1;HPM_P2
2024/01/16 00:02:03;;;;;;;13.93;8.32;;;-0.30;99.90;;;-1.85;100.00;100039.91;4964127;28;20034;-77
2024/01/16 00:04:31;;;;;;;12.82;8.15;;;0.10;99.90;;;-1.92;100.00;100020.88;4969170;28;20149;-77
2024/01/16 00:06:58;;;;;;;13.05;8.85;;;0.50;99.90;;;-1.84;100.00;100035.66;4951443;28;20050;-77
2024/01/16 00:09:25;;;;;;;13.75;8.35;;;0.10;99.90;;;-1.91;100.00;100006.28;4951366;28;20117;-77
2024/01/16 00:11:52;;;;;;;11.35;7.65;;;-0.90;99.90;;;-1.81;100.00;100039.13;4959262;28;20055;-77
2024/01/16 00:14:19;;;;;;;13.35;8.75;;;0.30;99.90;;;-1.83;100.00;100043.41;4963800;28;20058;-77
2024/01/16 00:16:47;;;;;;;13.68;8.60;;;0.00;99.90;;;-1.86;100.00;100036.50;4949737;28;20652;-77
2024/01/16 00:19:14;;;;;;;14.25;8.25;;;0.30;99.90;;;-1.76;100.00;100046.97;4967361;28;20080;-77
2024/01/16 00:21:46;;;;;;;13.00;8.57;;;-0.20;99.90;;;-1.78;100.00;100052.13;4983007;28;20130;-77
2024/01/16 00:24:14;;;;;;;14.27;9.32;;;-0.70;99.90;;;-1.74;100.00;100053.03;4981655;28;20061;-78
2024/01/16 00:26:41;;;;;;;14.57;9.40;;;-0.20;99.90;;;-1.74;100.00;100047.88;4978764;28;20046;-78
2024/01/16 00:29:12;;;;;;;11.88;7.72;;;-0.40;99.90;;;-1.72;100.00;100041.03;4983610;28;20106;-78
2024/01/16 00:31:42;;;;;;;10.30;7.65;;;0.80;99.90;;;-1.66;100.00;100050.63;4975531;28;20050;-78
2024/01/16 00:34:09;;;;;;;12.63;7.65;;;0.70;99.90;;;-1.80;100.00;100027.97;4969307;28;20042;-78
2024/01/16 00:36:38;;;;;;;13.70;8.75;;;1.00;99.90;;;-1.75;100.00;100034.13;4972275;28;20486;-78
2024/01/16 00:39:05;;;;;;;13.55;7.70;;;-0.60;99.90;;;-1.78;100.00;100046.09;4969386;28;20039;-78
2024/01/16 00:41:32;;;;;;;18.55;10.48;;;0.30;99.90;;;-1.72;100.00;100046.19;4975932;28;20799;-78
2024/01/16 00:43:59;;;;;;;15.68;10.65;;;0.40;99.90;;;-1.79;100.00;100042.66;4964938;28;20051;-78
2024/01/16 00:46:26;;;;;;;12.07;8.15;;;0.30;99.90;;;-1.72;100.00;100048.78;4944321;28;20050;-77
2024/01/16 00:48:53;;;;;;;13.30;7.85;;;0.20;99.90;;;-1.69;100.00;100055.72;4965453;28;20484;-77
2024/01/16 00:51:20;;;;;;;13.82;8.60;;;0.00;99.90;;;-1.60;100.00;100063.66;4965253;28;20058;-78
2024/01/16 00:53:47;;;;;;;12.40;8.50;;;0.30;99.90;;;-1.63;100.00;100056.72;4971282;28;20043;-78
2024/01/16 00:56:14;;;;;;;11.75;7.93;;;-0.50;99.90;;;-1.67;100.00;100072.97;4971881;28;20062;-78
2024/01/16 00:58:41;;;;;;;12.80;8.05;;;1.00;99.90;;;-1.71;100.00;100053.13;4980830;28;20322;-79
2024/01/16 01:01:08;;;;;;;14.25;8.13;;;-0.20;99.90;;;-1.74;100.00;100064.25;4954088;28;20085;-78
2024/01/16 01:03:35;;;;;;;13.20;7.80;;;0.70;99.90;;;-1.69;100.00;100084.97;4969323;28;20071;-78
2024/01/16 01:06:02;;;;;;;15.23;8.90;;;0.50;99.90;;;-1.74;100.00;100059.09;4977032;28;20042;-77
2024/01/16 01:08:30;;;;;;;15.52;8.07;;;0.80;99.90;;;-1.72;100.00;100078.03;4954166;28;20055;-78
2024/01/16 01:10:57;;;;;;;15.32;9.20;;;0.70;99.90;;;-1.64;100.00;100082.47;4982184;28;20615;-78
2024/01/16 01:13:25;;;;;;;10.88;8.27;;;0.00;99.90;;;-1.59;100.00;100099.81;4956996;28;20546;-78
2024/01/16 01:15:52;;;;;;;16.92;8.95;;;0.00;99.90;;;-1.64;100.00;100091.09;4981267;28;20050;-77
2024/01/16 01:18:19;;;;;;;11.93;8.00;;;-0.30;99.90;;;-1.65;100.00;100083.31;4974276;28;20413;-77
2024/01/16 01:20:47;;;;;;;15.95;9.48;;;0.80;99.90;;;-1.61;100.00;100091.16;4972132;28;20047;-78
2024/01/16 01:23:14;;;;;;;14.23;7.68;;;0.40;99.90;;;-1.63;100.00;100085.09;4954488;28;20102;-78
2024/01/16 01:25:42;;;;;;;16.95;8.55;;;0.20;99.90;;;-1.59;100.00;100089.47;4966719;28;20105;-78
2024/01/16 01:28:11;;;;;;;12.73;8.70;;;0.20;99.90;;;-1.58;100.00;100093.81;4974046;28;20050;-78
2024/01/16 01:30:38;;;;;;;15.48;8.60;;;0.20;99.90;;;-1.59;100.00;100104.09;4997065;28;20543;-78
2024/01/16 01:33:05;;;;;;;17.55;9.35;;;0.80;99.90;;;-1.66;100.00;100107.38;4954903;28;20050;-78
2024/01/16 01:35:33;;;;;;;11.95;8.10;;;0.10;99.90;;;-1.67;100.00;100100.47;4976465;28;20143;-78
2024/01/16 01:38:00;;;;;;;17.83;8.98;;;-0.10;99.90;;;-1.62;100.00;100110.06;4964283;28;20615;-78
2024/01/16 01:40:27;;;;;;;16.48;8.48;;;0.60;99.90;;;-1.68;100.00;100107.38;4973846;28;20061;-78
2024/01/16 01:42:54;;;;;;;11.98;7.93;;;0.40;99.90;;;-1.68;100.00;100088.41;4937947;28;20043;-78
2024/01/16 01:45:21;;;;;;;13.23;8.05;;;0.70;99.90;;;-1.73;100.00;100089.19;4969142;28;20114;-78
2024/01/16 01:47:49;;;;;;;15.00;9.73;;;-0.10;99.90;;;-1.72;100.00;100087.47;4940400;28;20066;-78
2024/01/16 01:50:17;;;;;;;12.93;7.45;;;0.50;99.90;;;-1.70;100.00;100103.88;4956406;28;20161;-79
2024/01/16 01:52:44;;;;;;;11.68;8.20;;;0.40;99.90;;;-1.74;100.00;100096.88;4977234;28;20070;-78
2024/01/16 01:55:15;;;;;;;14.80;8.98;;;0.30;99.90;;;-1.80;100.00;100101.94;4962831;28;20062;-78
2024/01/16 01:57:42;;;;;;;11.77;8.93;;;-0.10;99.90;;;-1.74;100.00;100108.09;4952903;28;20043;-78
2024/01/16 02:00:11;;;;;;;13.95;8.75;;;-0.10;99.90;;;-1.82;100.00;100096.72;4966138;28;20133;-78
2024/01/16 02:02:41;;;;;;;13.20;9.43;;;-0.10;99.90;;;-1.75;100.00;100111.50;4966016;28;20047;-78
2024/01/16 02:05:09;;;;;;;19.88;9.75;;;0.00;99.90;;;-1.79;100.00;100095.94;4965816;28;20095;-78
2024/01/16 02:07:36;;;;;;;12.63;8.27;;;-0.10;99.90;;;-1.78;100.00;100106.28;4950050;28;20050;-79
2024/01/16 02:10:04;;;;;;;15.43;9.18;;;0.20;99.90;;;-1.90;100.00;100090.53;4983430;28;20059;-78
2024/01/16 02:12:31;;;;;;;17.77;8.95;;;0.50;99.90;;;-1.79;100.00;100104.56;4973439;28;20390;-78
2024/01/16 02:14:58;;;;;;;13.70;8.02;;;1.00;99.90;;;-1.72;100.00;100121.00;4966626;28;20153;-78
2024/01/16 02:17:25;;;;;;;15.02;8.35;;;0.00;99.90;;;-1.77;100.00;100104.56;4970665;28;20146;-78
2024/01/16 02:19:52;;;;;;;14.98;8.77;;;-0.10;99.90;;;-1.73;100.00;100111.53;4958640;28;20081;-78
2024/01/16 02:22:22;;;;;;;15.07;8.75;;;0.10;99.90;;;-1.78;100.00;100113.16;4975656;28;20508;-78
2024/01/16 02:24:49;;;;;;;14.60;9.30;;;0.50;99.90;;;-1.76;100.00;100126.94;4961606;28;20057;-78
2024/01/16 02:27:16;;;;;;;14.18;8.25;;;-0.20;99.90;;;-1.80;100.00;100122.56;4979692;28;20489;-78
2024/01/16 02:29:44;;;;;;;12.95;9.10;;;0.20;99.90;;;-1.81;100.00;100124.25;4998529;28;20134;-78
2024/01/16 02:32:12;;;;;;;14.73;9.77;;;0.20;99.90;;;-1.80;100.00;100126.00;4970719;28;20054;-78
2024/01/16 02:34:41;;;;;;;14.15;7.97;;;-0.30;99.90;;;-1.92;100.00;100111.13;4969972;28;20482;-78
2024/01/16 02:37:08;;;;;;;11.98;7.07;;;-0.10;99.90;;;-1.92;100.00;100105.13;4957719;28;20051;-78
2024/01/16 02:39:35;;;;;;;12.68;9.18;;;-0.40;99.90;;;-1.91;100.00;100118.03;4982076;28;20311;-78
2024/01/16 02:42:05;;;;;;;13.35;8.30;;;0.10;99.90;;;-1.98;100.00;100107.53;4994762;28;20141;-77
2024/01/16 02:44:32;;;;;;;14.07;8.57;;;-0.40;99.90;;;-1.95;100.00;100111.06;4970201;28;20054;-78
2024/01/16 02:47:02;;;;;;;;;;;0.10;99.90;;;-1.95;100.00;100115.34;4979408;28;20494;-78
2024/01/16 02:49:31;;;;;;;13.57;8.52;;;-0.90;99.90;;;-1.99;100.00;100109.25;4962873;28;19932;-78
2024/01/16 02:51:58;;;;;;;12.75;8.05;;;1.10;99.90;;;-1.93;100.00;100111.97;4974583;28;20055;-78
2024/01/16 02:54:25;;;;;;;12.35;7.95;;;-0.60;99.90;;;-1.98;100.00;100107.53;4965572;28;20050;-78
2024/01/16 02:56:52;;;;;;;19.30;8.23;;;-0.40;99.90;;;-1.87;100.00;100126.72;4965606;28;20046;-78
2024/01/16 02:59:19;;;;;;;13.18;8.40;;;0.00;99.90;;;-1.86;100.00;100125.88;4972310;28;20046;-78
2024/01/16 03:01:46;;;;;;;102.30;63.25;;;0.10;99.90;;;-1.93;100.00;100114.53;4977651;28;20045;-79
2024/01/16 03:04:13;;;;;;;66.32;39.33;;;0.00;99.90;;;-1.93;100.00;100111.09;4970963;28;20075;-79
2024/01/16 03:06:40;;;;;;;26.77;16.50;;;-0.20;1.00;;;-1.90;100.00;100119.75;4971861;28;20051;-79
2024/01/16 03:09:07;;;;;;;210.80;114.32;;;-0.70;99.90;;;-1.97;100.00;100120.47;4953712;28;20047;-79
2024/01/16 03:11:34;;;;;;;68.00;47.92;;;-0.10;1.00;;;-2.06;100.00;100115.09;4972145;28;20057;-79
2024/01/16 03:14:02;;;;;;;40.67;29.88;;;-0.30;1.00;;;-2.07;100.00;100118.50;4974480;28;20442;-78
2024/01/16 03:16:29;;;;;;;21.27;13.02;;;-0.50;1.00;;;-2.10;100.00;100116.75;4974353;28;20054;-79
2024/01/16 03:18:56;;;;;;;30.13;21.65;;;-0.30;1.00;;;-2.13;100.00;100124.38;4966340;28;20043;-81
2024/01/16 03:21:23;;;;;;;18.80;11.32;;;-0.30;1.00;;;-2.22;100.00;100108.72;4986373;28;20039;-78
2024/01/16 03:23:50;;;;;;;16.25;14.48;;;-0.50;1.00;;;-2.20;100.00;100123.38;4970254;28;20046;-79
2024/01/16 03:26:17;;;;;;;16.80;11.25;;;-1.40;1.00;;;-2.17;100.00;100127.72;4965009;28;20133;-78
2024/01/16 03:28:45;;;;;;;17.92;12.38;;;-0.60;1.00;;;-2.18;100.00;100119.16;4981174;28;20101;-78
2024/01/16 03:31:14;;;;;;;14.60;10.48;;;-0.30;1.00;;;-2.10;100.00;100127.06;4987352;28;20065;-78
2024/01/16 03:33:43;;;;;;;15.57;9.82;;;0.20;1.00;;;-2.07;100.00;100133.97;4984323;28;20488;-79
2024/01/16 03:36:12;;;;;;;17.92;8.65;;;-0.50;1.00;;;-2.11;100.00;100120.13;4980701;28;20061;-79
2024/01/16 03:38:40;;;;;;;10.93;8.57;;;0.60;1.00;;;-2.19;100.00;100113.94;4983000;28;20042;-78
2024/01/16 03:41:07;;;;;;;11.18;8.80;;;-0.40;1.00;;;-2.20;100.00;100110.47;4983408;28;20046;-78
2024/01/16 03:43:35;;;;;;;13.40;7.65;;;-0.10;1.00;;;-2.20;100.00;100119.94;4973334;28;20046;-78
2024/01/16 03:46:02;;;;;;;15.90;9.38;;;0.10;1.00;;;-2.16;100.00;100119.16;4972796;28;20813;-78
2024/01/16 03:48:29;;;;;;;12.65;7.28;;;0.90;1.00;;;-2.21;100.00;100118.19;4974581;28;20050;-78
2024/01/16 03:50:57;;;;;;;16.27;8.23;;;-0.30;1.00;;;-2.27;100.00;100113.75;4971185;28;20433;-78
2024/01/16 03:53:24;;;;;;;14.82;8.35;;;-0.70;1.00;;;-2.23;100.00;100117.28;4961570;28;20088;-78
2024/01/16 03:55:51;;;;;;;14.95;8.40;;;0.00;1.00;;;-2.28;100.00;100107.72;4987578;28;20047;-78
2024/01/16 03:58:18;;;;;;;18.80;10.13;;;-0.20;1.00;;;-2.30;100.00;100117.13;4945856;28;20054;-78
2024/01/16 04:00:45;;;;;;;11.10;8.02;;;-1.00;1.00;;;-2.29;100.00;100116.28;4969697;28;20563;-79
2024/01/16 04:03:13;;;;;;;13.73;9.10;;;0.70;1.00;;;-2.27;100.00;100129.22;4971541;28;20632;-78
2024/01/16 04:05:40;;;;;;;15.55;9.15;;;-0.20;1.00;;;-2.30;100.00;100119.69;4972766;28;20045;-79
2024/01/16 04:08:07;;;;;;;12.80;9.27;;;-0.30;1.00;;;-2.29;100.00;100125.75;4946137;29;20428;-78
2024/01/16 04:10:35;;;;;;;15.60;9.13;;;-0.30;1.00;;;-2.29;100.00;100116.28;4969641;28;20053;-78
2024/01/16 04:13:02;;;;;;;15.70;9.30;;;-1.30;1.00;;;-2.20;100.00;100133.69;4972630;28;20057;-78
2024/01/16 04:15:30;;;;;;;14.82;8.75;;;-1.00;1.00;;;-2.32;100.00;100113.63;4975715;28;20456;-78
2024/01/16 04:17:57;;;;;;;14.55;8.65;;;-0.60;1.00;;;-2.24;100.00;100125.84;4963497;28;20394;-78
2024/01/16 04:20:27;;;;;;;12.32;8.02;;;-1.30;1.00;;;-2.21;100.00;100131.09;4982272;28;20049;-79
2024/01/16 04:22:54;;;;;;;;;;;-0.80;1.00;;;-2.25;100.00;100137.00;4974297;28;20047;-79
2024/01/16 04:25:21;;;;;;;14.55;8.55;;;-0.50;1.00;;;-2.33;100.00;100118.78;4968232;28;20038;-78
2024/01/16 04:27:48;;;;;;;15.10;7.47;;;-0.50;1.00;;;-2.24;100.00;100138.75;4952509;28;20050;-78
2024/01/16 04:30:15;;;;;;;12.35;9.02;;;-0.20;1.00;;;-2.33;100.00;100124.78;4980230;28;20050;-78
2024/01/16 04:32:42;;;;;;;10.70;7.47;;;0.50;1.00;;;-2.27;100.00;100126.66;4968959;28;20059;-78
2024/01/16 04:35:10;;;;;;;13.15;7.93;;;0.20;1.00;;;-2.29;100.00;100115.44;4960300;28;20358;-78
2024/01/16 04:37:37;;;;;;;19.52;11.60;;;-0.40;1.00;;;-2.31;100.00;100112.81;4984476;28;20050;-79
2024/01/16 04:40:05;;;;;;;22.85;11.43;;;0.60;1.00;;;-2.24;100.00;100115.53;4972491;28;20097;-78
2024/01/16 04:42:33;;;;;;;16.77;11.57;;;-0.60;1.00;;;-2.36;100.00;100098.94;4972202;28;20043;-79
2024/01/16 04:45:00;;;;;;;12.68;8.80;;;-1.00;1.00;;;-2.26;100.00;100112.03;4973362;28;20046;-78
2024/01/16 04:47:27;;;;;;;15.90;8.27;;;-0.70;1.00;;;-2.21;100.00;100115.63;4971874;28;20051;-79
2024/01/16 04:49:54;;;;;;;13.63;8.85;;;-0.30;1.00;;;-2.30;100.00;100108.53;4975887;28;20047;-79
2024/01/16 04:52:21;;;;;;;17.88;7.88;;;-0.30;1.00;;;-2.30;100.00;100117.13;4975782;28;20394;-78
2024/01/16 04:54:49;;;;;;;13.05;8.25;;;0.60;1.00;;;-2.40;100.00;100085.94;4975343;28;20094;-78
2024/01/16 04:57:15;;;;;;;14.82;9.05;;;-0.40;1.00;;;-2.31;100.00;100101.63;4995742;28;20129;-79
2024/01/16 04:59:42;;;;;;;14.38;8.93;;;-0.40;1.00;;;-2.35;100.00;100102.38;4960909;28;20077;-79
2024/01/16 05:02:10;;;;;;;11.68;8.38;;;-0.50;1.00;;;-2.52;100.00;100084.78;4983033;28;20066;-78
2024/01/16 05:04:38;;;;;;;12.77;8.30;;;-0.30;1.00;;;-2.45;100.00;100091.88;4975681;28;20833;-79
2024/01/16 05:07:05;;;;;;;15.98;8.93;;;-0.80;1.00;;;-2.49;100.00;100099.47;4970651;28;20047;-79
2024/01/16 05:09:32;;;;;;;13.52;8.00;;;-0.20;1.00;;;-2.46;100.00;100100.44;4964604;28;20417;-78
2024/01/16 05:12:00;;;;;;;14.15;8.60;;;0.10;1.00;;;-2.52;100.00;100081.38;4971722;28;20050;-78
2024/01/16 05:14:27;;;;;;;14.38;8.82;;;-0.90;1.00;;;-2.58;100.00;100084.66;4970052;28;20067;-78
2024/01/16 05:16:54;;;;;;;12.32;9.07;;;-0.40;1.00;;;-2.55;100.00;100084.72;4954974;28;20050;-78
2024/01/16 05:19:21;;;;;;;11.30;7.95;;;-0.20;1.00;;;-2.52;100.00;100089.09;4974702;28;20043;-77
2024/01/16 05:21:49;;;;;;;13.35;8.30;;;-0.40;1.00;;;-2.49;100.00;100102.03;4972691;28;20049;-78
2024/01/16 05:24:16;;;;;;;15.35;8.52;;;-0.60;1.00;;;-2.50;100.00;100090.84;4986086;28;20043;-78
2024/01/16 05:26:43;;;;;;;20.73;14.82;;;-0.30;1.00;;;-2.54;100.00;100081.31;4987510;28;20047;-78
2024/01/16 05:29:11;;;;;;;38.00;24.90;;;-0.50;1.00;;;-2.51;100.00;100088.25;4986183;28;20058;-77
2024/01/16 05:31:45;;;;;;;20.27;12.98;;;-1.10;1.00;;;-2.49;100.00;100079.75;4968697;28;20046;-78
2024/01/16 05:34:12;;;;;;;51.67;30.33;;;-0.70;1.00;;;-2.47;100.00;100074.63;4978923;28;20053;-78
2024/01/16 05:36:39;;;;;;;149.88;85.05;;;-0.50;1.00;;;-2.58;100.00;100052.03;4985738;28;20197;-79
2024/01/16 05:39:06;;;;;;;33.33;21.65;;;-0.80;1.00;;;-2.49;100.00;100065.97;4977938;28;20050;-81
2024/01/16 05:41:35;;;;;;;16.40;11.95;;;-0.70;1.00;;;-2.57;100.00;100053.78;4979446;28;20073;-79
2024/01/16 05:44:05;;;;;;;14.45;9.27;;;-0.40;1.00;;;-2.53;100.00;100054.72;4970637;28;20465;-79
2024/01/16 05:46:33;;;;;;;17.58;9.95;;;0.10;1.00;;;-2.53;100.00;100057.28;4969595;28;20097;-79
2024/01/16 05:49:00;;;;;;;14.18;8.88;;;-0.70;1.00;;;-2.52;100.00;100055.59;4974622;28;20061;-80
2024/01/16 05:51:29;;;;;;;19.52;10.68;;;-1.10;1.00;;;-2.51;100.00;100060.78;4977704;28;20046;-80
2024/01/16 05:53:56;;;;;;;21.42;16.42;;;-1.60;1.00;;;-2.61;100.00;100056.25;4973426;28;20073;-79
2024/01/16 05:56:23;;;;;;;15.25;10.50;;;-1.60;1.00;;;-2.52;100.00;100068.47;4978314;28;20073;-79
2024/01/16 05:58:51;;;;;;;14.70;9.88;;;-0.30;1.00;;;-2.70;100.00;100033.72;4957768;28;20036;-80
2024/01/16 06:01:19;;;;;;;18.15;12.00;;;-1.30;1.00;;;-2.55;100.00;100064.13;4990463;28;20048;-78
2024/01/16 06:03:48;;;;;;;20.52;11.02;;;-0.30;1.00;;;-2.61;100.00;100051.94;4973544;28;20109;-79
2024/01/16 06:06:16;;;;;;;169.05;74.13;;;0.10;1.00;;;-2.57;100.00;100058.06;4965707;28;20537;-78
2024/01/16 06:08:43;;;;;;;27.27;15.65;;;-0.50;1.00;;;-2.49;100.00;100059.13;4967452;28;20058;-78
2024/01/16 06:11:10;;;;;;;26.23;19.77;;;-1.40;1.00;;;-2.60;100.00;100051.13;4971607;28;20554;-78
2024/01/16 06:13:40;;;;;;;43.53;39.35;;;-1.00;1.00;;;-2.57;100.00;100065.78;4962014;28;20047;-78
2024/01/16 06:16:10;;;;;;;18.05;12.23;;;-1.10;1.00;;;-2.55;100.00;100071.00;4957340;28;20432;-79
2024/01/16 06:18:37;;;;;;;;;;;-0.70;1.00;;;-2.73;100.00;100046.53;4997726;28;20493;-79
2024/01/16 06:21:05;;;;;;;22.80;19.73;;;-0.30;1.00;;;-2.68;100.00;100056.91;4961157;28;19926;-79
2024/01/16 06:23:31;;;;;;;25.65;13.90;;;-1.10;1.00;;;-2.69;100.00;100060.31;4969156;28;20049;-78
2024/01/16 06:26:00;;;;;;;19.35;10.82;;;-0.70;1.00;;;-2.68;100.00;100044.03;4972306;28;20042;-78
2024/01/16 06:28:27;;;;;;;19.73;12.60;;;-1.20;1.00;;;-2.60;100.00;100061.41;4980999;28;20054;-78
2024/01/16 06:30:54;;;;;;;15.00;11.38;;;-0.90;1.00;;;-2.62;100.00;100062.25;4978483;28;20053;-78
2024/01/16 06:33:21;;;;;;;20.00;10.27;;;-1.20;1.00;;;-2.61;100.00;100069.13;4960259;28;20509;-78
2024/01/16 06:35:49;;;;;;;17.42;11.23;;;-0.80;1.00;;;-2.66;100.00;100053.56;4970546;28;20043;-79
2024/01/16 06:38:20;;;;;;;20.83;10.70;;;-1.30;1.00;;;-2.58;100.00;100059.75;4959249;28;20112;-78
2024/01/16 06:40:47;;;;;;;22.35;11.57;;;-0.50;1.00;;;-2.67;100.00;100063.81;4982047;28;20117;-79
2024/01/16 06:43:15;;;;;;;26.85;12.18;;;-1.00;1.00;;;-2.72;100.00;100056.00;4980199;28;20078;-79
2024/01/16 06:45:43;;;;;;;17.95;12.07;;;0.40;1.00;;;-2.78;100.00;100056.69;4950804;28;20150;-78
2024/01/16 06:48:10;;;;;;;17.48;11.55;;;-0.70;1.00;;;-2.72;100.00;100056.84;4969584;28;20484;-79
2024/01/16 06:50:38;;;;;;;16.90;11.57;;;-1.40;1.00;;;-2.81;100.00;100035.16;4977935;28;20051;-78
2024/01/16 06:53:05;;;;;;;18.40;11.52;;;-0.70;1.00;;;-2.69;100.00;100055.19;4983956;28;20378;-78
2024/01/16 06:55:32;;;;;;;18.98;12.93;;;-0.40;1.00;;;-2.68;100.00;100059.50;4965601;28;20100;-78
2024/01/16 06:57:59;;;;;;;20.30;12.32;;;-0.40;1.00;;;-2.72;100.00;100046.53;4955401;28;20751;-78
2024/01/16 07:00:27;;;;;;;20.70;12.38;;;-1.30;1.00;;;-2.63;100.00;100052.78;4970900;28;20129;-78
2024/01/16 07:02:54;;;;;;;21.70;13.18;;;-0.50;1.00;;;-2.70;100.00;100038.88;4973282;28;20101;-78
2024/01/16 07:05:21;;;;;;;17.75;11.63;;;-1.00;1.00;;;-2.64;100.00;100038.16;4981453;28;20046;-79
2024/01/16 07:07:49;;;;;;;17.52;11.68;;;-0.60;1.00;;;-2.66;100.00;100050.09;4981789;28;20050;-78
2024/01/16 07:10:21;;;;;;;19.80;11.63;;;-0.80;1.00;;;-2.69;100.00;100053.47;4971000;28;20077;-78
2024/01/16 07:12:49;;;;;;;15.60;10.50;;;0.40;1.00;;;-2.75;100.00;100043.00;4956977;28;20047;-78
2024/01/16 07:15:16;;;;;;;19.83;12.10;;;-1.00;1.00;;;-2.64;100.00;100056.19;4976418;28;20050;-78
2024/01/16 07:17:46;;;;;;;15.13;10.35;;;-0.90;1.00;;;-2.62;100.00;100049.34;4962020;28;20077;-78
2024/01/16 07:20:13;;;;;;;20.23;11.02;;;-1.20;1.00;;;-2.65;100.00;100046.72;4979666;28;20516;-78
2024/01/16 07:22:40;;;;;;;16.20;12.10;;;-0.60;1.00;;;-2.54;100.00;100055.56;4979013;28;20050;-78
2024/01/16 07:25:08;;;;;;;20.98;11.95;;;-0.80;1.00;;;-2.55;100.00;100048.66;4978662;28;20046;-78
2024/01/16 07:27:36;;;;;;;25.38;12.73;;;-0.60;1.00;;;-2.58;100.00;100040.88;4970126;28;20097;-78
2024/01/16 07:30:07;;;;;;;20.23;11.63;;;1.30;1.00;;;-2.53;100.00;100046.13;4981645;28;20104;-78
2024/01/16 07:32:34;;;;;;;17.55;11.55;;;-1.10;1.00;;;-2.59;100.00;100047.69;5005473;28;20062;-78
2024/01/16 07:35:02;;;;;;;17.02;12.10;;;-0.40;1.00;;;-2.49;100.00;100055.66;4971294;28;20061;-78
2024/01/16 07:37:30;;;;;;;18.30;13.50;;;-1.10;1.00;;;-2.54;100.00;100044.41;4957438;28;20054;-78
2024/01/16 07:39:57;;;;;;;17.52;11.50;;;-1.10;1.00;;;-2.44;100.00;100057.53;4978013;28;20788;-78
2024/01/16 07:42:24;;;;;;;19.27;11.30;;;-0.70;1.00;;;-2.54;100.00;100037.50;4978225;28;20508;-78
2024/01/16 07:44:52;;;;;;;16.33;11.75;;;-0.60;1.00;;;-2.60;100.00;100033.09;4969233;28;20149;-78
2024/01/16 07:47:19;;;;;;;20.40;13.40;;;-0.90;1.00;;;-2.50;100.00;100041.91;4970136;28;20047;-78
2024/01/16 07:49:47;;;;;;;19.48;12.02;;;-0.80;1.00;;;-2.45;100.00;100047.16;4971880;28;20065;-78
2024/01/16 07:52:15;;;;;;;18.83;12.60;;;-1.20;1.00;;;-2.45;100.00;100040.31;4959994;28;20065;-79
2024/01/16 07:54:42;;;;;;;22.00;12.93;;;-0.90;1.00;;;-2.35;100.00;100055.97;4974459;28;20046;-78
2024/01/16 07:57:09;;;;;;;20.80;12.02;;;0.70;1.00;;;-2.36;100.00;100043.94;4970997;28;20042;-78
2024/01/16 07:59:37;;;;;;;20.85;12.30;;;-0.10;1.00;;;-2.31;100.00;100056.09;4971399;28;20031;-78
2024/01/16 08:02:05;;;;;;;17.55;11.55;;;-0.40;1.00;;;-2.30;100.00;100059.56;4965681;28;20074;-78
2024/01/16 08:04:32;;;;;;;20.10;12.48;;;-0.40;1.00;;;-2.31;100.00;100047.50;4975338;28;20043;-79
2024/01/16 08:06:59;;;;;;;22.90;12.82;;;-1.20;1.00;;;-2.21;100.00;100056.31;4981835;28;20082;-78
2024/01/16 08:09:26;;;;;;;21.75;13.10;;;0.10;1.00;;;-2.28;100.00;100047.56;4991245;28;20105;-79
2024/01/16 08:11:53;;;;;;;18.38;13.27;;;-0.80;1.00;;;-2.26;100.00;100038.16;4973772;28;20046;-78
2024/01/16 08:14:20;;;;;;;19.83;13.00;;;-0.60;1.00;;;-2.23;100.00;100050.28;4976369;28;20042;-79
2024/01/16 08:16:47;;;;;;;20.02;11.95;;;-0.50;1.00;;;-2.21;100.00;100066.63;4979362;28;20100;-79
2024/01/16 08:19:14;;;;;;;18.88;12.50;;;-0.40;99.90;;;-2.20;100.00;100066.66;4976638;28;20486;-79
2024/01/16 08:21:42;;;;;;;25.08;15.07;;;-0.30;1.00;;;-2.27;100.00;100064.78;4970487;28;20131;-78
2024/01/16 08:24:09;;;;;;;22.83;12.02;;;-0.70;1.00;;;-2.20;100.00;100065.81;4969520;28;20199;-77
2024/01/16 08:26:36;;;;;;;19.17;11.40;;;-0.20;1.00;;;-2.19;100.00;100073.56;4971855;28;20049;-78
2024/01/16 08:29:05;;;;;;;19.42;12.45;;;-0.90;1.00;;;-2.18;100.00;100069.28;4963432;28;20051;-79
2024/01/16 08:31:32;;;;;;;21.30;12.50;;;-0.30;99.90;;;-2.13;100.00;100070.25;4969907;28;20138;-77
2024/01/16 08:33:59;;;;;;;17.80;10.98;;;0.10;1.00;;;-2.05;100.00;100083.31;4981061;28;20053;-78
2024/01/16 08:36:26;;;;;;;17.15;10.93;;;0.00;99.90;;;-2.04;100.00;100072.16;4976248;28;20043;-79
2024/01/16 08:38:55;;;;;;;19.75;12.10;;;0.20;99.90;;;-2.01;100.00;100080.84;4971438;28;20485;-79
2024/01/16 08:41:22;;;;;;;18.27;11.00;;;-0.50;99.90;;;-1.98;100.00;100084.31;4953853;28;20047;-78
2024/01/16 08:43:50;;;;;;;22.02;13.20;;;0.30;99.90;;;-2.00;100.00;100079.16;4966689;28;20058;-77
2024/01/16 08:46:19;;;;;;;19.73;12.02;;;-0.10;99.90;;;-1.94;100.00;100092.16;4977995;28;20441;-77
2024/01/16 08:48:46;;;;;;;21.05;12.93;;;-0.20;99.90;;;-1.91;100.00;100109.44;4985073;28;20116;-77
2024/01/16 08:51:14;;;;;;;18.02;12.18;;;-0.30;99.90;;;-1.88;100.00;100102.59;4968490;28;20043;-77
2024/01/16 08:53:42;;;;;;;21.77;12.48;;;0.00;99.90;;;-1.87;100.00;100101.81;4976168;28;20085;-77
2024/01/16 08:56:12;;;;;;;17.38;10.75;;;-0.30;99.90;;;-1.86;100.00;100098.38;4966363;28;20131;-80
2024/01/16 08:58:40;;;;;;;22.48;11.90;;;-0.20;99.90;;;-1.79;100.00;100116.56;4967131;28;20038;-78
2024/01/16 09:01:07;;;;;;;18.77;12.60;;;1.30;99.90;;;-1.86;100.00;100110.41;4977334;28;20039;-78
2024/01/16 09:03:35;;;;;;;21.45;12.00;;;-0.30;99.90;;;-1.80;100.00;100112.25;4966317;28;20049;-78
2024/01/16 09:06:03;;;;;;;20.73;12.07;;;0.00;99.90;;;-1.70;100.00;100116.78;4962138;28;20078;-77
2024/01/16 09:08:31;;;;;;;17.63;11.43;;;0.20;99.90;;;-1.74;100.00;100122.69;4979244;28;20117;-77
2024/01/16 09:10:58;;;;;;;24.00;13.10;;;-0.30;99.90;;;-1.70;100.00;100127.09;4970143;28;20081;-78
2024/01/16 09:13:26;;;;;;;20.50;12.40;;;1.20;99.90;;;-1.75;100.00;100114.09;4978119;28;20045;-78
2024/01/16 09:15:53;;;;;;;16.67;11.13;;;0.20;99.90;;;-1.79;100.00;100094.25;4979213;28;20623;-79
2024/01/16 09:18:20;;;;;;;18.10;11.80;;;-0.30;99.90;;;-1.69;100.00;100105.63;4966450;28;20038;-78
2024/01/16 09:20:48;;;;;;;19.90;12.02;;;-0.30;99.90;;;-1.61;100.00;100113.53;4970102;28;20045;-78
2024/01/16 09:23:15;;;;;;;18.77;10.13;;;0.30;99.90;;;-1.64;100.00;100103.13;4981063;28;20038;-78
2024/01/16 09:25:45;;;;;;;17.63;11.02;;;-0.10;99.90;;;-1.49;100.00;100125.81;4966026;28;20045;-78
2024/01/16 09:28:14;;;;;;;18.60;12.27;;;0.20;99.90;;;-1.55;100.00;100118.81;4974638;28;20039;-78
2024/01/16 09:30:45;;;;;;;18.05;10.13;;;0.00;1.00;;;-1.51;100.00;100119.75;4982667;28;20125;-80
2024/01/16 09:33:13;;;;;;;18.35;11.52;;;0.60;1.00;;;-1.58;100.00;100103.28;4967878;28;20560;-77
2024/01/16 09:35:41;;;;;;;22.00;12.13;;;-0.10;1.00;;;-1.46;100.00;100126.75;4974373;28;20122;-77
2024/01/16 09:38:08;;;;;;;17.30;10.70;;;-0.10;1.00;;;-1.50;100.00;100122.34;4982148;28;20039;-78
2024/01/16 09:40:35;;;;;;;20.50;11.93;;;0.30;1.00;;;-1.34;100.00;100143.31;4969412;28;20042;-77
2024/01/16 09:43:04;;;;;;;19.95;10.68;;;0.20;1.00;;;-1.37;100.00;100136.41;4981673;28;20117;-78
2024/01/16 09:45:32;;;;;;;18.02;10.98;;;0.40;1.00;;;-1.39;100.00;100124.28;4980581;28;20038;-77
2024/01/16 09:48:02;;;;;;;15.75;10.30;;;0.20;99.90;;;-1.37;100.00;100123.50;4978454;28;20042;-78
2024/01/16 09:50:29;;;;;;;21.08;11.40;;;0.60;99.90;;;-1.29;100.00;100126.25;4969921;28;20058;-79
2024/01/16 09:52:56;;;;;;;16.13;10.45;;;0.80;99.90;;;-1.33;100.00;100106.34;4974296;28;20039;-76
2024/01/16 09:55:26;;;;;;;16.55;11.32;;;1.80;99.90;;;-1.25;100.00;100109.06;4982082;28;20050;-77
2024/01/16 09:57:53;;;;;;;30.48;16.75;;;-0.10;99.90;;;-1.24;100.00;100110.84;4970301;28;20078;-78
2024/01/16 10:00:21;;;;;;;21.02;11.40;;;0.60;99.90;;;-1.20;100.00;100104.91;4983010;28;20047;-76
2024/01/16 10:02:50;;;;;;;24.33;14.25;;;0.30;24.50;;;-1.19;100.00;100102.31;4973131;28;20158;-77
2024/01/16 10:05:17;;;;;;;65.15;28.20;;;0.20;99.90;;;-1.13;100.00;100101.56;4977178;28;20062;-78